Main page
METAR-TAF:

METAR-TAF

Airports :

Farnborough Airport

Farnborough, England

latitude: 51-17N, longitude: 000-46W, elevation: 65 m

Current weather observation

The report was made 23 minutes ago, at 07:20 UTC
Wind 13 kt from the West/Northwest, varying between West/Southwest and North/Northwest
Temperature 13°C
Humidity 51%
Pressure 996 hPa
Visibility 10 km or more

METAR: EGLF 050720Z AUTO 30013KT 250V330 9999 SCT041/// 13/03 Q0996

Time: 08:43 (07:43 UTC)

Forecast

The report was made 1 hour and 47 minutes ago, at 05:56 UTC
Forecast valid from 05 at 06 UTC to 05 at 15 UTC
Wind 13 kt from the West
Visibility 10 km or more
Scattered clouds at a height of 3500 ft
Temporary
from 05 at 10 UTC to 05 at 15 UTC
Wind 17 kt from the West/Northwest with gusts up to 27 kt
Visibility: 7000 m
rain showers

TAF: EGLF 050556Z 0506/0515 28013KT 9999 SCT035 TEMPO 0510/0515 29017G27KT 7000 SHRA

Weather observations and forecasts of more than 4000 airports (METAR and TAF reports).

The available stations are represented by yellow and red dots on the map.

Hover mouse over dot to see the name of the station.

Then click to see weather observations and forecasts.

To change the map : click on the green buttons with a black cross to zoom in, on the green button with a dash to zoom out, or on the green arrows for adjacent maps.


METAR-TAF: